mostra aiuto
Accedi o registrati
gp della svizzera

MXGP. Cairoli e Seewer si aggiudicano le qualifiche del GP della Svizzera

- Il fondo allentato della 15ª tappa ha visto Cairoli aggiudicarsi la qualifica MXGP e il pilota di casa Seewer quella MX2; 1° Facchetti nella EMX125
MXGP. Cairoli e Seewer si aggiudicano le qualifiche del GP della Svizzera

Memore della decisa vittoria ottenuta lo scorso anno sullo stesso tracciato, Tony Cairoli è partito col piede giusto dimostrando ai suo tanti tifosi giunti dall’Italia quali siano le sue ambizioni in vista della gara ufficiale.

Dopo aver preso le misure all’anfiteatro naturale che offre una visibilità pressoché totale al pubblico, la qualifica lo ha visto semplicemente partire al comando e mantenere la posizione senza problemi sino al traguardo dove è arrivato con un paio di secondi di vantaggio su Max Anstie e una decina su Romain Febvre.

Quarta piazza Arnaud Tonus, sostenuto dal tifo di casa, che ha preceduto Glenn Coldenhoff il quale ha soffiato la posizione a tre giri dalla fine da Jeffrey Herlings scivolato mentre stava per scavalcare l’olandese. 10° Alex Lupino, mentre sono rimasti nelle retrovie Evgeny Bobryshev e Jeremy Van Horebeek caduti alla partenza assieme a Tim Gajser che ha preso la via dei box.

Nella MX2 prova di forza dell’ufficiale Suzuki Jeremy Seewer che quest’anno ci tiene a regalare ai suo sostenitori quella vittoria che gli è sfuggita la scorsa edizione. Lo svizzero ha strappato il comando al 4° passaggio a Julien Lieber che gli è poi finito dietro seguito da Pauls Jonass e Daria Sanayei. 6° Benoit Paturel, che pare possa essere il sostituito di Bobryshev per il 2018 a fianco di Gajser, mentre Michele Cervellin si è piazzato 8°.

Splendida affermazione nell’Europeo 125 per Gianluca Facchetti che si è aggiudicato la prima manche nonostante una scivolata; bravo anche Mattia Guadagnini che ha concluso 4°.

Sfortunati Nicholas Lapucci, partito in testa nella manche EMX250 e restato nelle prime posizioni sino a quando problemi elettrici lo hanno costretto al ritiro, e il leader Simone Furlotti rimasto nelle ultime posizioni e rimontato sino a 14°; 5° Morgan Lesiardo rinvenuto dall’11ª piazza.

 

 

CLASSIFICHE 

MXGP - Qualifying Race - Classification
Pos Nr Rider Nat. Fed. Bike Time laps Diff. First Diff. Prev. Bestlaptime in lap Speed
1 222 Cairoli, Antonio ITA FMI KTM 24:05.893 11 0:00.000 0:00.000 1:59.395 4 49.7
2 99 Anstie, Max GBR ACU Husqvarna 24:08.001 11 0:02.108 0:02.108 1:59.631 4 49.6
3 461 Febvre, Romain FRA FFM Yamaha 24:15.759 11 0:09.866 0:07.758 1:59.835 4 49.5
4 4 Tonus, Arnaud SUI FMS Yamaha 24:17.466 11 0:11.573 0:01.707 1:59.703 3 49.6
5 259 Coldenhoff, Glenn NED KNMV KTM 24:21.968 11 0:16.075 0:04.502 2:00.935 2 49.1
6 84 Herlings, Jeffrey NED KNMV KTM 24:26.529 11 0:20.636 0:04.561 1:59.940 7 49.5
7 21 Paulin, Gautier FRA MCM Husqvarna 24:27.774 11 0:21.881 0:01.245 2:00.643 5 49.2
8 22 Strijbos, Kevin BEL FMB Suzuki 24:29.374 11 0:23.481 0:01.600 2:00.457 3 49.3
9 12 Nagl, Maximilian GER DMSB Husqvarna 24:31.686 11 0:25.793 0:02.312 2:00.895 5 49.1
10 77 Lupino, Alessandro ITA FMI Honda 24:53.284 11 0:47.391 0:21.598 2:02.378 5 48.5
11 100 Searle, Tommy GBR ACU Kawasaki 24:57.144 11 0:51.251 0:03.860 2:02.825 10 48.3
12 25 Desalle, Clement BEL FMB Kawasaki 25:01.280 11 0:55.387 0:04.136 2:01.371 8 48.9
13 27 Jasikonis, Arminas LTU LMSF Suzuki 25:11.726 11 1:05.833 0:10.446 2:02.242 7 48.5
14 777 Bobryshev, Evgeny RUS MFR Honda 25:18.801 11 1:12.908 0:07.075 2:01.545 4 48.8
15 71 Graulus, Damon BEL FMB Honda 25:27.700 11 1:21.807 0:08.899 2:05.018 3 47.5
16 89 Van Horebeek, Jeremy BEL FMB Yamaha 25:29.250 11 1:23.357 0:01.550 2:02.734 5 48.3
17 999 Goncalves, Rui POR FMP Husqvarna 25:36.942 11 1:31.049 0:07.692 2:05.272 4 47.4
18 49 Irt, Jernej SLO AMZS Husqvarna 25:38.627 11 1:32.734 0:01.685 2:05.638 2 47.2
19 191 Romancik, Jaromir CZE ACCR KTM 25:39.534 11 1:33.641 0:00.907 2:06.378 7 47
20 878 Pezzuto, Stefano ITA FMI Yamaha 25:48.761 11 1:42.868 0:09.227 2:06.696 3 46.8

 

MX2 - Qualifying Race - Classification
Pos Nr Rider Nat. Fed. Bike Time laps Diff. First Diff. Prev. Bestlaptime in lap Speed
1 91 Seewer, Jeremy SUI FMS Suzuki 24:25.631 11 0:00.000 0:00.000 2:00.241 5 49.4
2 33 Lieber, Julien BEL FMB KTM 24:30.639 11 0:05.008 0:05.008 2:01.250 2 48.9
3 41 Jonass, Pauls LAT LAMSF KTM 24:43.182 11 0:17.551 0:12.543 2:01.926 3 48.7
4 57 Sanayei, Darian USA AMA Kawasaki 24:44.025 11 0:18.394 0:00.843 2:00.548 5 49.2
5 19 Olsen, Thomas Kjer DEN DMU Husqvarna 24:44.764 11 0:19.133 0:00.739 2:01.877 4 48.7
6 6 Paturel, Benoit FRA FFM Yamaha 24:48.699 11 0:23.068 0:03.935 2:00.921 4 49.1
7 426 Mewse, Conrad GBR ACU Husqvarna 24:50.692 11 0:25.061 0:01.993 2:01.945 4 48.7
8 747 Cervellin, Michele ITA FMI Honda 24:54.975 11 0:29.344 0:04.283 2:02.506 4 48.4
9 96 Lawrence, Hunter AUS MA Suzuki 24:56.935 11 0:31.304 0:01.960 2:02.537 5 48.4
10 81 Hsu, Brian GER MAMS Husqvarna 25:03.189 11 0:37.558 0:06.254 2:03.017 3 48.2
11 64 Covington, Thomas USA MUL Husqvarna 25:08.674 11 0:43.043 0:05.485 2:03.510 4 48
12 919 Watson, Ben GBR ACU KTM 25:11.540 11 0:45.909 0:02.866 2:03.583 8 48
13 61 Prado Garcia, Jorge ESP RFME KTM 25:21.379 11 0:55.748 0:09.839 2:03.511 8 48
14 189 Bogers, Brian NED KNMV KTM 25:23.801 11 0:58.170 0:02.422 2:04.443 5 47.7
15 118 Rubini, Stephen FRA FFM Kawasaki 25:25.821 11 1:00.190 0:02.020 2:04.233 2 47.8
16 46 Pootjes, Davy NED KNMV KTM 25:26.222 11 1:00.591 0:00.401 2:04.031 2 47.8
17 172 Van doninck, Brent BEL FMB Yamaha 25:27.078 11 1:01.447 0:00.856 2:04.633 7 47.6
18 161 Östlund, Alvin SWE SVEMO Yamaha 25:27.887 11 1:02.256 0:00.809 2:04.930 6 47.5
19 66 Larranaga Olano, Iker ESP RFME Husqvarna 25:38.495 11 1:12.864 0:10.608 2:03.998 5 47.9
20 10 Vlaanderen, Calvin NED KNMV KTM 25:38.947 11 1:13.316 0:00.452 2:02.923 9 48.3
  • walter.sciutto, Nizza Monferrato (AT)

    Pista molto bucata, sorpassi difficilissimi. La partenza vale l'80% della gara.
Inserisci il tuo commento